Time;durP1;ratioP1;P1;durP2;ratioP2;P2;SDS_P1;SDS_P2;PMS_P1;PMS_P2;Temp;Humidity;BMP_temperature;BMP_pressure;BME280_temperature;BME280_humidity;BME280_pressure;Samples;Min_cycle;Max_cycle;Signal;HPM_P1;HPM_P2
2022/01/13 00:01:35;;;;;;;72.78;37.85;;;25.50;99.90;;;;;;5095742;28;20085;-68
2022/01/13 00:04:02;;;;;;;71.28;37.95;;;25.50;99.90;;;;;;5095565;28;20028;-67
2022/01/13 00:06:29;;;;;;;63.38;35.45;;;25.60;99.90;;;;;;5098684;28;20053;-67
2022/01/13 00:08:56;;;;;;;71.18;38.70;;;25.60;99.90;;;;;;5114127;28;20031;-68
2022/01/13 00:11:23;;;;;;;61.15;36.38;;;25.60;99.90;;;;;;5115990;28;20380;-67
2022/01/13 00:14:07;;;;;;;58.97;37.22;;;25.60;99.90;;;;;;5097026;28;20549;-67
2022/01/13 00:19:18;;;;;;;61.20;39.03;;;25.70;99.90;;;;;;5075162;28;20051;-68
2022/01/13 00:21:52;;;;;;;62.60;36.55;;;25.70;99.90;;;;;;5073979;28;20385;-66
2022/01/13 00:24:19;;;;;;;59.75;33.90;;;25.80;99.90;;;;;;5091501;28;20115;-69
2022/01/13 00:26:47;;;;;;;60.33;35.05;;;25.80;99.90;;;;;;5078956;28;20025;-66
2022/01/13 00:29:19;;;;;;;48.65;31.88;;;25.90;99.90;;;;;;5090908;28;20031;-66
2022/01/13 00:31:46;;;;;;;57.53;34.17;;;26.00;99.90;;;;;;5089648;28;20024;-67
2022/01/13 00:34:13;;;;;;;47.50;32.17;;;25.90;99.90;;;;;;5095061;28;20020;-67
2022/01/13 00:36:41;;;;;;;47.35;32.78;;;26.00;99.90;;;;;;5094784;28;20107;-67
2022/01/13 00:39:11;;;;;;;49.85;32.47;;;26.00;99.90;;;;;;5095128;28;20031;-69
2022/01/13 00:41:39;;;;;;;77.40;52.40;;;26.10;99.90;;;;;;5094733;28;20024;-71
2022/01/13 00:44:08;;;;;;;56.55;33.20;;;26.10;99.90;;;;;;5093350;28;20038;-69
2022/01/13 00:46:43;;;;;;;44.17;30.00;;;26.20;99.90;;;;;;5094700;28;20489;-68
2022/01/13 00:49:12;;;;;;;48.53;29.55;;;26.30;99.90;;;;;;5094490;28;20024;-66
2022/01/13 00:51:39;;;;;;;72.43;46.13;;;26.40;99.90;;;;;;5094555;28;20032;-67
2022/01/13 00:54:08;;;;;;;58.30;34.05;;;26.60;99.90;;;;;;5100096;28;20062;-67
2022/01/13 00:56:36;;;;;;;54.30;31.00;;;26.70;99.90;;;;;;5110570;28;20073;-67
2022/01/13 00:59:09;;;;;;;59.88;28.70;;;26.70;99.90;;;;;;5096651;28;20103;-67
2022/01/13 01:01:41;;;;;;;51.38;26.67;;;26.80;99.90;;;;;;5094530;28;20062;-67
2022/01/13 01:04:09;;;;;;;49.97;27.25;;;26.80;99.90;;;;;;5094029;28;20552;-67
2022/01/13 01:06:36;;;;;;;47.28;28.05;;;26.90;99.90;;;;;;5094101;28;20048;-70
2022/01/13 01:09:04;;;;;;;70.10;43.90;;;26.90;99.90;;;;;;5094306;28;20016;-67
2022/01/13 01:11:31;;;;;;;56.42;34.58;;;26.90;99.90;;;;;;5094365;28;20475;-66
2022/01/13 01:14:00;;;;;;;57.65;33.85;;;27.00;99.90;;;;;;5094082;28;20073;-69
2022/01/13 01:16:27;;;;;;;52.65;28.45;;;27.10;99.90;;;;;;5094462;28;20024;-66
2022/01/13 01:19:02;;;;;;;40.13;24.92;;;27.20;99.90;;;;;;5093920;28;20031;-67
2022/01/13 01:29:10;;;;;;;48.30;27.50;;;27.30;99.90;;;;;;5106587;28;20044;-68
2022/01/13 01:31:39;;;;;;;35.47;22.73;;;27.30;99.90;;;;;;5093372;28;20085;-68
2022/01/13 01:34:24;;;;;;;59.95;30.48;;;27.40;99.90;;;;;;5089297;28;20548;-67
2022/01/13 01:36:52;;;;;;;48.30;31.30;;;27.50;99.90;;;;;;5092948;28;20046;-67
2022/01/13 01:39:19;;;;;;;44.72;23.98;;;27.60;99.90;;;;;;5093922;28;20031;-69
2022/01/13 01:41:50;;;;;;;42.30;20.27;;;27.70;99.90;;;;;;5087594;28;20099;-67
2022/01/13 01:44:20;;;;;;;44.75;21.98;;;27.70;99.90;;;;;;5083639;28;20111;-69
2022/01/13 01:46:47;;;;;;;59.85;33.03;;;27.90;99.90;;;;;;5084263;28;20024;-67
2022/01/13 01:49:17;;;;;;;42.25;19.63;;;27.90;99.90;;;;;;5084502;28;20090;-68
2022/01/13 01:51:53;;;;;;;42.25;20.55;;;27.90;99.90;;;;;;5081466;28;20093;-67
2022/01/13 01:54:20;;;;;;;74.55;42.22;;;27.90;99.90;;;;;;5084992;28;20060;-68
2022/01/13 01:56:46;;;;;;;50.25;33.42;;;27.90;99.90;;;;;;5093831;28;20158;-68
2022/01/13 01:59:16;;;;;;;74.13;42.85;;;28.00;99.90;;;;;;5104822;28;20031;-68
2022/01/13 02:01:44;;;;;;;45.55;20.60;;;28.10;99.90;;;;;;5094490;28;20028;-70
2022/01/13 02:04:12;;;;;;;34.78;18.70;;;28.00;99.90;;;;;;5093481;28;20077;-70
2022/01/13 02:06:40;;;;;;;41.85;18.33;;;27.90;99.90;;;;;;5101638;28;20238;-67
2022/01/13 02:09:09;;;;;;;44.25;20.02;;;27.90;99.90;;;;;;5113637;28;20369;-69
2022/01/13 02:11:42;;;;;;;33.53;18.45;;;27.90;99.90;;;;;;5092073;28;20044;-68
2022/01/13 02:14:31;;;;;;;49.05;18.60;;;28.00;99.90;;;;;;5101528;28;20375;-68
2022/01/13 02:17:08;;;;;;;43.88;17.92;;;28.00;99.90;;;;;;5083973;28;20423;-69
2022/01/13 02:19:39;;;;;;;37.67;17.90;;;28.00;99.90;;;;;;5093269;28;20032;-68
2022/01/13 02:22:07;;;;;;;41.92;18.25;;;28.10;99.90;;;;;;5093014;28;20436;-69
2022/01/13 02:24:34;;;;;;;38.78;17.52;;;28.20;99.90;;;;;;5093187;28;20035;-67
2022/01/13 02:27:02;;;;;;;95.97;55.35;;;28.20;99.90;;;;;;5081091;28;20275;-69
2022/01/13 02:29:29;;;;;;;49.67;23.15;;;28.20;99.90;;;;;;5092858;28;20035;-72
2022/01/13 02:31:56;;;;;;;110.03;61.78;;;28.20;99.90;;;;;;5092757;28;20032;-71
2022/01/13 02:34:23;;;;;;;43.42;19.13;;;28.20;99.90;;;;;;5092835;28;20484;-71
2022/01/13 02:36:53;;;;;;;33.42;16.13;;;28.40;99.90;;;;;;5092709;28;20039;-68
2022/01/13 02:39:23;;;;;;;51.20;22.58;;;28.50;99.90;;;;;;5092452;28;20460;-71
2022/01/13 02:41:50;;;;;;;48.65;25.73;;;28.70;99.90;;;;;;5092461;28;20054;-70
2022/01/13 02:44:21;;;;;;;45.15;19.33;;;28.60;99.90;;;;;;5092399;28;20032;-69
2022/01/13 02:49:16;;;;;;;35.78;14.00;;;28.50;99.90;;;;;;5095821;28;20035;-68
2022/01/13 02:51:45;;;;;;;31.08;16.73;;;28.70;99.90;;;;;;5096498;28;20476;-70
2022/01/13 02:54:12;;;;;;;30.85;17.35;;;28.70;99.90;;;;;;5097020;28;20035;-68
2022/01/13 02:56:40;;;;;;;42.25;17.65;;;28.50;99.90;;;;;;5096964;28;20038;-69
2022/01/13 02:59:07;;;;;;;33.65;15.00;;;28.50;99.90;;;;;;5096563;28;20032;-70
2022/01/13 03:01:34;;;;;;;33.80;13.88;;;28.50;99.90;;;;;;5099885;28;20081;-68
2022/01/13 03:04:06;;;;;;;31.15;13.90;;;28.70;99.90;;;;;;5087290;28;20036;-69
2022/01/13 03:06:35;;;;;;;33.72;15.63;;;28.80;99.90;;;;;;5079638;28;20076;-70
2022/01/13 03:09:05;;;;;;;28.25;14.63;;;28.80;99.90;;;;;;5095683;28;20032;-68
2022/01/13 03:11:36;;;;;;;32.40;15.35;;;29.00;99.90;;;;;;5095428;28;20468;-71
2022/01/13 03:14:05;;;;;;;40.80;14.90;;;29.00;99.90;;;;;;5094347;28;20107;-71
2022/01/13 03:16:32;;;;;;;37.58;14.48;;;29.00;99.90;;;;;;5096086;28;20028;-71
2022/01/13 03:18:58;;;;;;;54.50;19.70;;;29.10;99.90;;;;;;5096215;28;20028;-69
2022/01/13 03:21:25;;;;;;;38.28;18.15;;;29.00;99.90;;;;;;5083741;28;20081;-69
2022/01/13 03:23:52;;;;;;;50.65;28.08;;;28.90;99.90;;;;;;5076038;28;20469;-69
2022/01/13 03:26:21;;;;;;;65.78;34.40;;;29.00;99.90;;;;;;5076045;28;20028;-70
2022/01/13 03:28:54;;;;;;;80.57;37.88;;;29.00;99.90;;;;;;5096212;28;20074;-73
2022/01/13 03:31:24;;;;;;;70.70;34.25;;;29.00;99.90;;;;;;5101321;28;20035;-69
2022/01/13 03:33:53;;;;;;;49.78;27.45;;;29.00;99.90;;;;;;5095386;28;20035;-71
2022/01/13 03:36:19;;;;;;;66.10;39.90;;;29.30;99.90;;;;;;5088903;28;20032;-72
2022/01/13 03:38:46;;;;;;;27.17;14.25;;;29.50;99.90;;;;;;5087437;28;20045;-69
2022/01/13 03:41:14;;;;;;;43.08;13.70;;;29.60;99.90;;;;;;5086106;28;20078;-70
2022/01/13 03:43:42;;;;;;;27.05;11.52;;;29.60;99.90;;;;;;5095625;28;20051;-71
2022/01/13 03:46:10;;;;;;;32.03;18.17;;;29.70;99.90;;;;;;5092478;28;20036;-70
2022/01/13 03:48:37;;;;;;;71.10;39.58;;;29.80;99.90;;;;;;5083916;28;20019;-69
2022/01/13 03:51:04;;;;;;;214.07;142.52;;;29.60;99.90;;;;;;5084403;28;20020;-69
2022/01/13 03:53:31;;;;;;;59.72;32.25;;;29.60;99.90;;;;;;5085611;28;20621;-69
2022/01/13 03:56:05;;;;;;;49.15;24.30;;;29.70;99.90;;;;;;5086712;28;20106;-70
2022/01/13 03:58:43;;;;;;;32.47;15.75;;;29.80;99.90;;;;;;5094152;28;20035;-74
2022/01/13 04:01:35;;;;;;;37.28;20.65;;;29.90;99.90;;;;;;5095445;28;20162;-72
2022/01/13 04:04:02;;;;;;;31.40;17.48;;;29.90;99.90;;;;;;5095288;28;20027;-71
2022/01/13 04:06:38;;;;;;;45.97;14.43;;;30.30;99.90;;;;;;5094746;28;20044;-73
2022/01/13 04:09:30;;;;;;;26.80;14.57;;;30.40;99.90;;;;;;5095177;28;20051;-70
2022/01/13 04:11:56;;;;;;;31.27;10.93;;;30.40;99.90;;;;;;5095540;28;20024;-69
2022/01/13 04:14:37;;;;;;;26.73;9.68;;;30.50;99.10;;;;;;5095183;28;20023;-71
2022/01/13 04:17:04;;;;;;;24.48;9.18;;;30.40;98.60;;;;;;5095607;28;20043;-71
2022/01/13 04:19:31;;;;;;;20.27;8.32;;;30.60;97.60;;;;;;5101879;28;20032;-69
2022/01/13 04:21:58;;;;;;;25.83;9.80;;;30.60;97.70;;;;;;5077928;28;20032;-72
2022/01/13 04:24:24;;;;;;;26.20;7.75;;;30.60;97.20;;;;;;5074802;28;20060;-70
2022/01/13 04:26:53;;;;;;;22.10;8.52;;;30.60;96.40;;;;;;5091213;28;20069;-68
2022/01/13 04:29:29;;;;;;;303.42;193.75;;;30.60;97.20;;;;;;5094622;28;20051;-71
2022/01/13 04:31:56;;;;;;;81.93;55.80;;;30.70;96.70;;;;;;5095142;28;20043;-69
2022/01/13 04:34:22;;;;;;;21.77;8.90;;;30.80;96.50;;;;;;5090609;28;20016;-72
2022/01/13 04:36:50;;;;;;;26.65;8.82;;;30.60;95.60;;;;;;5090608;28;20036;-70
2022/01/13 04:39:16;;;;;;;27.30;10.85;;;30.60;95.90;;;;;;5091459;28;20030;-70
2022/01/13 04:41:46;;;;;;;44.00;28.17;;;30.60;96.00;;;;;;5082465;28;20028;-75
2022/01/13 04:44:18;;;;;;;23.77;9.13;;;30.70;96.90;;;;;;5092658;28;20028;-72
2022/01/13 04:46:46;;;;;;;17.35;8.38;;;30.90;95.20;;;;;;5096011;28;20031;-70
2022/01/13 04:49:13;;;;;;;25.50;9.18;;;30.80;94.30;;;;;;5083654;28;20381;-74
2022/01/13 04:51:41;;;;;;;22.00;8.85;;;30.90;94.20;;;;;;5085149;28;20020;-72
2022/01/13 04:54:08;;;;;;;26.92;8.93;;;31.00;93.80;;;;;;5088044;28;20025;-71
2022/01/13 04:59:07;;;;;;;21.65;8.73;;;31.10;93.00;;;;;;5084963;28;20028;-73
2022/01/13 05:01:34;;;;;;;20.52;8.30;;;31.00;92.40;;;;;;5100171;28;20028;-73
2022/01/13 05:04:01;;;;;;;18.63;8.02;;;31.00;91.90;;;;;;5092029;28;20521;-71
2022/01/13 05:06:28;;;;;;;22.02;8.05;;;31.00;92.00;;;;;;5088187;28;20047;-72
2022/01/13 05:08:54;;;;;;;16.38;7.82;;;31.00;92.00;;;;;;5092752;28;20028;-74
2022/01/13 05:11:21;;;;;;;22.70;7.82;;;31.20;91.90;;;;;;5095214;28;20027;-74
2022/01/13 05:13:49;;;;;;;19.33;9.00;;;31.30;90.50;;;;;;5087147;28;20081;-73
2022/01/13 05:16:23;;;;;;;17.08;7.65;;;31.40;91.10;;;;;;5087765;28;20047;-73
2022/01/13 05:24:06;;;;;;;21.80;9.13;;;31.50;91.60;;;;;;5094981;28;20016;-73
2022/01/13 05:26:33;;;;;;;26.88;8.40;;;31.70;89.60;;;;;;5090987;28;20023;-74
2022/01/13 05:29:00;;;;;;;32.58;8.77;;;31.70;90.40;;;;;;5090856;28;20028;-72
2022/01/13 05:31:26;;;;;;;19.75;7.22;;;31.60;90.20;;;;;;5085211;28;20027;-74
2022/01/13 05:33:53;;;;;;;16.05;6.70;;;31.60;90.70;;;;;;5090637;28;20024;-73
2022/01/13 05:36:20;;;;;;;20.77;7.95;;;31.50;90.20;;;;;;5089544;28;20025;-75
2022/01/13 05:38:46;;;;;;;18.27;8.77;;;31.60;90.00;;;;;;5089523;28;20016;-72
2022/01/13 05:41:13;;;;;;;26.90;8.38;;;31.60;90.70;;;;;;5089053;28;20027;-73
2022/01/13 05:43:40;;;;;;;17.23;8.18;;;31.70;87.50;;;;;;5093279;28;20028;-72
2022/01/13 05:46:07;;;;;;;27.73;9.02;;;31.70;88.80;;;;;;5092760;28;20016;-73
2022/01/13 05:48:33;;;;;;;16.00;7.50;;;31.90;84.50;;;;;;5083336;28;20019;-71
2022/01/13 05:51:00;;;;;;;17.70;7.40;;;32.00;87.80;;;;;;5090265;28;20019;-70
2022/01/13 05:53:27;;;;;;;17.42;6.75;;;32.00;86.00;;;;;;5085442;28;20033;-70
2022/01/13 05:55:54;;;;;;;19.02;6.70;;;32.00;85.00;;;;;;5085515;28;20062;-72
2022/01/13 05:58:20;;;;;;;23.92;7.68;;;32.00;82.00;;;;;;5094082;28;20016;-71
2022/01/13 06:00:47;;;;;;;33.65;16.13;;;32.20;82.90;;;;;;5093517;28;20023;-71
2022/01/13 06:03:14;;;;;;;26.35;10.63;;;32.30;83.60;;;;;;5093944;28;20016;-71
2022/01/13 06:05:40;;;;;;;18.20;7.38;;;32.20;81.50;;;;;;5093657;28;20126;-71
2022/01/13 06:08:07;;;;;;;22.70;7.97;;;32.30;80.50;;;;;;5094016;28;20024;-70
2022/01/13 06:10:34;;;;;;;20.75;9.00;;;32.30;82.90;;;;;;5093988;28;20066;-71
2022/01/13 06:13:00;;;;;;;18.63;6.90;;;32.30;81.00;;;;;;5093407;28;20020;-69
2022/01/13 06:15:27;;;;;;;17.38;7.63;;;32.30;82.30;;;;;;5094478;28;20027;-73
2022/01/13 06:17:56;;;;;;;21.50;8.52;;;32.40;83.00;;;;;;5098338;28;20012;-72
2022/01/13 06:20:24;;;;;;;18.33;6.60;;;32.30;82.50;;;;;;5094924;28;20020;-70
2022/01/13 06:22:52;;;;;;;16.05;7.32;;;32.40;80.80;;;;;;5104285;28;20385;-71
2022/01/13 06:25:19;;;;;;;20.38;8.65;;;32.40;77.50;;;;;;5101416;28;20035;-75
2022/01/13 06:27:46;;;;;;;19.83;8.88;;;32.50;76.70;;;;;;5091373;28;20028;-71
2022/01/13 06:30:14;;;;;;;19.70;8.00;;;32.70;75.80;;;;;;5094980;28;20035;-75
2022/01/13 06:32:43;;;;;;;23.50;11.95;;;32.70;79.20;;;;;;5109516;27;20038;-73
2022/01/13 06:35:10;;;;;;;18.15;7.70;;;32.70;79.20;;;;;;5113842;28;20035;-71
2022/01/13 06:37:37;;;;;;;16.58;6.85;;;32.70;80.30;;;;;;5091599;28;20050;-75
2022/01/13 06:42:33;;;;;;;31.23;16.48;;;32.80;78.00;;;;;;5071560;28;20048;-73
2022/01/13 06:45:00;;;;;;;40.40;22.58;;;32.80;80.70;;;;;;5070514;28;20017;-76
2022/01/13 06:47:26;;;;;;;28.55;16.25;;;32.90;78.20;;;;;;5071666;28;20082;-73
2022/01/13 06:49:54;;;;;;;27.35;14.95;;;33.00;78.10;;;;;;5074908;28;20031;-72
2022/01/13 06:52:20;;;;;;;29.15;14.35;;;32.80;77.90;;;;;;5075218;28;20024;-73
2022/01/13 06:54:48;;;;;;;54.60;30.88;;;32.70;79.50;;;;;;5070499;28;20028;-74
2022/01/13 06:57:15;;;;;;;51.63;16.83;;;32.70;78.80;;;;;;5075555;28;20032;-74
2022/01/13 06:59:43;;;;;;;829.45;583.15;;;32.60;77.20;;;;;;5068463;28;20035;-77
2022/01/13 07:02:09;;;;;;;827.03;531.97;;;32.50;78.80;;;;;;5076951;28;20020;-75
2022/01/13 07:04:36;;;;;;;185.52;25.75;;;32.50;79.50;;;;;;5076233;28;20028;-74
2022/01/13 07:07:03;;;;;;;69.07;20.92;;;32.50;77.80;;;;;;5076691;28;20029;-76
2022/01/13 07:09:30;;;;;;;38.60;13.68;;;32.50;81.00;;;;;;5077031;28;20028;-72
2022/01/13 07:11:57;;;;;;;29.10;14.43;;;32.60;80.90;;;;;;5077454;28;20032;-72
2022/01/13 07:14:23;;;;;;;46.83;25.95;;;32.70;79.80;;;;;;5076398;28;20032;-77
2022/01/13 07:16:50;;;;;;;43.47;26.65;;;32.80;80.70;;;;;;5075722;28;20036;-75
2022/01/13 07:19:17;;;;;;;35.42;19.85;;;32.90;81.30;;;;;;5075441;28;20035;-75
2022/01/13 07:21:45;;;;;;;25.67;13.18;;;32.90;80.50;;;;;;5075349;28;20035;-77
2022/01/13 07:24:13;;;;;;;25.55;12.52;;;32.90;80.10;;;;;;5075835;28;20028;-77
2022/01/13 07:26:40;;;;;;;68.53;48.17;;;32.90;78.70;;;;;;5075528;28;20032;-76
2022/01/13 07:29:09;;;;;;;27.65;11.30;;;32.90;76.50;;;;;;5076125;28;20469;-75
2022/01/13 07:31:36;;;;;;;17.15;8.38;;;33.00;78.50;;;;;;5075495;28;20031;-74
2022/01/13 07:34:04;;;;;;;18.30;8.27;;;33.00;78.50;;;;;;5073959;28;20063;-75
2022/01/13 07:36:31;;;;;;;18.00;8.65;;;32.90;77.70;;;;;;5075198;28;20028;-77
2022/01/13 07:38:58;;;;;;;31.05;10.32;;;32.90;77.80;;;;;;5075145;28;20107;-75
2022/01/13 07:41:24;;;;;;;18.75;9.85;;;32.90;79.70;;;;;;5074519;28;20037;-78
2022/01/13 07:43:54;;;;;;;21.67;9.00;;;32.90;77.10;;;;;;5073410;28;20013;-74
2022/01/13 07:46:25;;;;;;;17.25;7.68;;;32.90;78.70;;;;;;5074706;28;20078;-75
2022/01/13 07:48:52;;;;;;;28.25;9.65;;;32.90;78.10;;;;;;5072543;28;20056;-76
2022/01/13 07:51:19;;;;;;;58.30;32.63;;;32.90;78.00;;;;;;5074787;28;20031;-77
2022/01/13 07:53:46;;;;;;;29.25;18.90;;;33.00;78.60;;;;;;5075551;28;20024;-75
2022/01/13 07:56:12;;;;;;;25.35;14.23;;;33.00;76.90;;;;;;5075382;28;20366;-75
2022/01/13 07:58:40;;;;;;;16.80;10.13;;;33.10;76.70;;;;;;5075364;28;20034;-76
2022/01/13 08:01:07;;;;;;;22.80;10.43;;;33.10;76.20;;;;;;5075613;28;20067;-76
2022/01/13 08:03:34;;;;;;;23.60;10.95;;;32.70;79.20;;;;;;5075231;28;20048;-74
2022/01/13 08:06:03;;;;;;;26.42;13.32;;;32.50;81.20;;;;;;5075084;28;20028;-72
2022/01/13 08:08:32;;;;;;;31.98;13.63;;;32.40;83.80;;;;;;5075482;28;20047;-74
2022/01/13 08:10:59;;;;;;;25.80;11.95;;;32.20;85.00;;;;;;5075201;28;20041;-73
2022/01/13 08:13:26;;;;;;;18.98;9.27;;;32.20;84.50;;;;;;5075025;28;20041;-74
2022/01/13 08:15:54;;;;;;;16.02;8.20;;;32.00;83.10;;;;;;5072020;28;20048;-74
2022/01/13 08:21:00;;;;;;;16.38;7.60;;;32.00;83.60;;;;;;5067874;28;20104;-76
2022/01/13 08:23:27;;;;;;;18.27;7.10;;;32.20;84.00;;;;;;5062782;28;20100;-74
2022/01/13 08:25:53;;;;;;;16.88;6.97;;;32.20;79.90;;;;;;5065534;28;20051;-75
2022/01/13 08:28:21;;;;;;;18.80;7.95;;;32.40;80.50;;;;;;5066985;28;20036;-77
2022/01/13 08:30:48;;;;;;;13.98;7.80;;;32.30;80.90;;;;;;5064380;28;20112;-75
2022/01/13 08:33:15;;;;;;;21.70;10.98;;;32.40;82.10;;;;;;5068912;28;20374;-74
2022/01/13 08:35:43;;;;;;;18.50;7.53;;;32.40;82.70;;;;;;5074807;28;20492;-75
2022/01/13 08:38:16;;;;;;;18.90;9.18;;;32.50;82.80;;;;;;5074402;28;20106;-75
2022/01/13 08:40:46;;;;;;;27.60;13.35;;;32.50;84.40;;;;;;5061652;28;20285;-74
2022/01/13 08:43:13;;;;;;;37.50;19.80;;;32.50;83.30;;;;;;5074074;28;20123;-73
2022/01/13 08:45:41;;;;;;;22.55;10.43;;;32.30;83.10;;;;;;5072225;28;20025;-76
2022/01/13 08:48:08;;;;;;;232.43;178.95;;;32.20;84.00;;;;;;5073128;28;20488;-73
2022/01/13 08:50:35;;;;;;;30.58;17.88;;;32.00;84.00;;;;;;5073373;28;20043;-73
2022/01/13 08:53:02;;;;;;;32.45;18.80;;;32.10;84.90;;;;;;5074363;28;20028;-75
2022/01/13 08:55:29;;;;;;;45.13;27.60;;;32.20;86.40;;;;;;5074150;28;20024;-75
2022/01/13 08:57:56;;;;;;;38.17;20.77;;;32.20;84.40;;;;;;5074314;28;20054;-71
2022/01/13 09:00:23;;;;;;;44.00;32.42;;;32.20;84.30;;;;;;5074682;28;20063;-72
2022/01/13 09:02:50;;;;;;;20.48;10.13;;;32.20;85.20;;;;;;5073148;28;20533;-74
2022/01/13 09:05:19;;;;;;;32.10;16.67;;;32.20;84.10;;;;;;5074388;28;20400;-73
2022/01/13 09:07:46;;;;;;;22.52;10.10;;;32.10;83.10;;;;;;5074438;28;20024;-73
2022/01/13 09:10:14;;;;;;;20.17;8.43;;;32.10;84.20;;;;;;5073429;28;20035;-74
2022/01/13 09:12:42;;;;;;;16.13;7.97;;;32.10;83.40;;;;;;5074531;28;20020;-74
2022/01/13 09:15:17;;;;;;;22.35;9.15;;;32.10;82.70;;;;;;5073474;28;20470;-73
2022/01/13 09:17:51;;;;;;;24.65;9.73;;;32.00;81.70;;;;;;5074392;28;20020;-73
2022/01/13 09:20:18;;;;;;;30.92;12.15;;;32.10;78.70;;;;;;5074604;28;20050;-73
2022/01/13 09:22:45;;;;;;;18.40;10.70;;;32.10;78.50;;;;;;5071631;28;20025;-75
2022/01/13 09:25:12;;;;;;;24.95;10.43;;;32.00;78.70;;;;;;5075333;28;20021;-73
2022/01/13 09:27:42;;;;;;;18.45;8.82;;;32.00;79.60;;;;;;5073652;28;20020;-75
2022/01/13 09:30:11;;;;;;;41.85;25.15;;;32.00;77.60;;;;;;5066584;28;20079;-73
2022/01/13 09:32:41;;;;;;;34.92;17.30;;;32.00;78.80;;;;;;5067597;28;20053;-74
2022/01/13 09:35:08;;;;;;;36.28;19.45;;;32.00;79.40;;;;;;5065533;28;20396;-74
2022/01/13 09:37:36;;;;;;;140.73;100.03;;;32.00;79.30;;;;;;5068831;28;20056;-72
2022/01/13 09:40:07;;;;;;;75.72;51.60;;;32.10;82.30;;;;;;5058898;28;20037;-73
2022/01/13 09:42:35;;;;;;;93.00;69.07;;;32.00;83.70;;;;;;5064722;28;20079;-72
2022/01/13 09:45:04;;;;;;;22.58;11.18;;;32.00;83.90;;;;;;5062760;28;20087;-71
2022/01/13 09:47:31;;;;;;;32.35;13.38;;;31.90;85.20;;;;;;5065564;28;20092;-72
2022/01/13 09:50:01;;;;;;;28.48;12.32;;;31.80;85.80;;;;;;5064517;28;20297;-72
2022/01/13 09:52:28;;;;;;;17.90;10.40;;;31.60;86.20;;;;;;5070258;28;20024;-73
2022/01/13 09:54:55;;;;;;;73.45;42.85;;;31.50;85.70;;;;;;5072132;28;20040;-75
2022/01/13 09:57:22;;;;;;;27.63;13.85;;;31.30;86.20;;;;;;5068707;28;20028;-74
2022/01/13 09:59:49;;;;;;;35.65;18.95;;;31.30;85.80;;;;;;5067055;28;20028;-73
2022/01/13 10:02:16;;;;;;;20.48;10.75;;;31.30;86.90;;;;;;5069567;28;20032;-72
2022/01/13 10:04:51;;;;;;;25.50;11.02;;;31.30;86.70;;;;;;5057586;28;20052;-76
2022/01/13 10:07:41;;;;;;;26.30;11.70;;;31.30;86.70;;;;;;5071625;28;20109;-75
2022/01/13 10:10:17;;;;;;;28.35;11.80;;;31.30;86.10;;;;;;5052519;28;20494;-76
2022/01/13 10:12:45;;;;;;;25.38;10.55;;;31.20;85.00;;;;;;5073565;28;20525;-74
2022/01/13 10:17:49;;;;;;;46.03;10.95;;;31.20;86.20;;;;;;5067972;28;20082;-72
2022/01/13 10:20:18;;;;;;;24.30;11.32;;;31.10;87.00;;;;;;5070529;28;20048;-70
2022/01/13 10:22:46;;;;;;;22.17;10.55;;;31.00;86.90;;;;;;5072862;28;20029;-71
2022/01/13 10:25:32;;;;;;;26.42;10.90;;;31.00;85.70;;;;;;5066809;28;20025;-70
2022/01/13 10:28:16;;;;;;;22.50;10.38;;;30.90;86.20;;;;;;5061903;28;20035;-71
2022/01/13 10:30:46;;;;;;;24.35;12.68;;;30.80;86.30;;;;;;5073764;28;20025;-71
2022/01/13 10:33:17;;;;;;;25.83;13.80;;;30.80;86.70;;;;;;5072441;28;20020;-71
2022/01/13 10:35:44;;;;;;;35.03;16.30;;;30.80;87.50;;;;;;5070018;28;20024;-73
2022/01/13 10:38:16;;;;;;;33.20;14.38;;;30.80;88.60;;;;;;5073001;28;20044;-72
2022/01/13 10:40:47;;;;;;;27.23;13.40;;;30.80;87.80;;;;;;5072998;28;20750;-72
2022/01/13 10:43:23;;;;;;;35.53;15.80;;;30.70;87.50;;;;;;5071564;28;20036;-72
2022/01/13 10:45:54;;;;;;;47.03;20.83;;;30.70;88.00;;;;;;5053221;28;20488;-72
2022/01/13 10:48:25;;;;;;;49.17;22.33;;;30.60;88.30;;;;;;5071834;28;20020;-73
2022/01/13 10:50:58;;;;;;;40.03;21.52;;;30.60;89.10;;;;;;5073013;28;20358;-70
2022/01/13 10:53:27;;;;;;;41.13;22.60;;;30.60;88.70;;;;;;5072456;28;20021;-71
2022/01/13 10:55:57;;;;;;;56.35;25.17;;;30.60;89.70;;;;;;5073708;28;22302;-70
2022/01/13 10:58:30;;;;;;;91.78;56.78;;;30.40;89.10;;;;;;5072934;28;20020;-71
2022/01/13 11:00:58;;;;;;;82.45;49.58;;;30.40;90.30;;;;;;5071996;28;20103;-69
2022/01/13 11:03:28;;;;;;;60.28;30.90;;;30.40;90.70;;;;;;5072925;28;20059;-70
2022/01/13 11:06:03;;;;;;;55.00;30.20;;;30.40;90.10;;;;;;5071635;28;20450;-69
2022/01/13 11:08:48;;;;;;;63.38;32.85;;;30.50;90.70;;;;;;5071953;28;20100;-69
2022/01/13 11:11:21;;;;;;;78.93;40.28;;;30.40;90.20;;;;;;5076661;28;20074;-69
2022/01/13 11:14:07;;;;;;;62.92;34.95;;;30.30;91.00;;;;;;5064135;28;20044;-71
2022/01/13 11:16:34;;;;;;;53.63;28.83;;;30.40;91.30;;;;;;5075759;28;20036;-70
2022/01/13 11:19:01;;;;;;;66.75;37.17;;;30.40;91.00;;;;;;5076782;28;20042;-68
2022/01/13 11:21:28;;;;;;;75.15;38.05;;;30.40;91.50;;;;;;5074372;28;20035;-71
2022/01/13 11:23:55;;;;;;;70.10;39.08;;;30.40;91.00;;;;;;5076071;28;20094;-68
2022/01/13 11:26:27;;;;;;;86.90;48.25;;;30.20;91.30;;;;;;5076295;28;20101;-68
2022/01/13 11:28:55;;;;;;;63.25;38.00;;;30.20;92.00;;;;;;5076057;28;20033;-68
2022/01/13 11:31:22;;;;;;;53.17;26.48;;;30.20;92.00;;;;;;5075846;28;20024;-70
2022/01/13 11:33:49;;;;;;;48.38;23.30;;;30.20;91.50;;;;;;5076091;28;20166;-71
2022/01/13 11:36:17;;;;;;;40.47;17.90;;;30.10;91.80;;;;;;5075681;28;20040;-69
2022/01/13 11:39:05;;;;;;;41.78;19.58;;;30.00;91.80;;;;;;5076101;28;20048;-69
2022/01/13 11:41:32;;;;;;;30.77;17.42;;;30.00;92.20;;;;;;5076243;28;20047;-69
2022/01/13 11:44:16;;;;;;;41.08;17.45;;;30.00;92.50;;;;;;5075559;28;20052;-69
2022/01/13 11:46:48;;;;;;;34.85;19.85;;;29.90;92.40;;;;;;5075841;28;20031;-68
2022/01/13 11:49:20;;;;;;;41.15;21.30;;;29.90;93.30;;;;;;5075695;28;20051;-68
2022/01/13 11:51:49;;;;;;;45.08;22.45;;;29.90;93.30;;;;;;5075220;28;20035;-70
2022/01/13 11:54:34;;;;;;;51.72;28.20;;;29.90;93.00;;;;;;5075766;28;20036;-70
2022/01/13 11:57:15;;;;;;;51.53;27.63;;;29.80;92.70;;;;;;5076088;28;20127;-70
2022/01/13 12:00:01;;;;;;;61.60;32.70;;;29.80;93.20;;;;;;5074631;28;20025;-70
2022/01/13 12:02:42;;;;;;;67.72;36.13;;;29.70;93.50;;;;;;5073787;28;20099;-70
2022/01/13 12:05:15;;;;;;;75.30;36.55;;;29.80;93.40;;;;;;5074523;28;20104;-69
2022/01/13 12:07:45;;;;;;;77.20;39.95;;;29.70;93.10;;;;;;5074961;28;20024;-71
2022/01/13 12:10:35;;;;;;;66.68;34.35;;;29.60;93.50;;;;;;5075634;28;20078;-70
2022/01/13 12:13:35;;;;;;;64.30;31.92;;;29.60;93.90;;;;;;5075229;28;20477;-70
2022/01/13 12:16:04;;;;;;;54.63;28.70;;;29.50;94.60;;;;;;5064977;28;20024;-67
2022/01/13 12:19:02;;;;;;;53.92;27.90;;;29.50;94.30;;;;;;5073075;28;20029;-69
2022/01/13 12:21:37;;;;;;;65.80;31.45;;;29.50;93.80;;;;;;5068251;28;20017;-69
2022/01/13 12:24:07;;;;;;;82.80;39.65;;;29.50;94.70;;;;;;5095651;28;20020;-71
2022/01/13 12:26:33;;;;;;;66.47;35.72;;;29.50;95.10;;;;;;5093476;28;20023;-68
2022/01/13 12:29:10;;;;;;;78.35;39.95;;;29.50;95.30;;;;;;5085319;28;20115;-68
2022/01/13 12:31:58;;;;;;;62.20;31.42;;;29.40;95.20;;;;;;5078765;28;20052;-69
2022/01/13 12:34:25;;;;;;;62.33;31.50;;;29.40;94.90;;;;;;5081925;28;20036;-67
2022/01/13 12:36:51;;;;;;;57.90;31.50;;;29.40;95.30;;;;;;5095775;28;20101;-68
2022/01/13 12:39:18;;;;;;;73.97;35.28;;;29.40;94.90;;;;;;5082233;28;20040;-69
2022/01/13 12:41:52;;;;;;;102.80;57.22;;;29.40;95.00;;;;;;5073956;28;20150;-71
2022/01/13 12:45:27;;;;;;;148.68;95.72;;;29.30;95.30;;;;;;5075310;28;20032;-74
2022/01/13 12:47:06;;;;;;;75.80;37.92;;;29.30;95.60;;;;;;5054946;28;20028;-72
2022/01/13 12:49:33;;;;;;;98.45;66.95;;;29.30;96.00;;;;;;5055356;28;20035;-73
2022/01/13 12:51:59;;;;;;;69.32;34.45;;;29.30;95.20;;;;;;5059423;28;20030;-72
2022/01/13 12:54:26;;;;;;;112.82;75.78;;;29.20;96.10;;;;;;5073905;28;20043;-72
2022/01/13 12:56:53;;;;;;;58.40;34.42;;;29.30;95.90;;;;;;5074790;28;20032;-72
2022/01/13 12:59:22;;;;;;;50.13;30.60;;;29.30;96.30;;;;;;5074965;28;20043;-70
2022/01/13 13:01:49;;;;;;;97.60;55.15;;;29.30;96.40;;;;;;5079710;28;20074;-73
2022/01/13 13:04:16;;;;;;;122.00;71.68;;;29.20;96.60;;;;;;5069897;28;20028;-70
2022/01/13 13:06:47;;;;;;;133.48;74.53;;;29.20;96.80;;;;;;5074659;28;20036;-73
2022/01/13 13:09:15;;;;;;;142.50;81.85;;;29.20;96.30;;;;;;5062667;28;20381;-74